createdAt,value
2022-08-11T00:04:35.751Z,4194.9
2022-08-11T00:10:10.576Z,4195.5
2022-08-11T00:15:49.753Z,4194
2022-08-11T00:22:07.376Z,4192.5
2022-08-11T00:27:42.531Z,4192
2022-08-11T00:33:17.544Z,4190.7
2022-08-11T00:38:52.384Z,4188.5
2022-08-11T00:44:27.230Z,4189.2
2022-08-11T00:50:02.162Z,4189.5
2022-08-11T00:55:37.908Z,4189.8
2022-08-11T01:01:15.782Z,4191.2
2022-08-11T01:06:50.580Z,4187.7
2022-08-11T01:12:25.368Z,4186.8
2022-08-11T01:18:29.427Z,4188.2
2022-08-11T01:24:02.256Z,4189.2
2022-08-11T01:29:37.054Z,4188.5
2022-08-11T01:35:11.964Z,4190.5
2022-08-11T01:40:46.796Z,4187.8
2022-08-11T01:46:22.581Z,4187.3
2022-08-11T01:51:58.393Z,4186.5
2022-08-11T01:57:33.254Z,4187.7
2022-08-11T02:03:08.090Z,4184.8
2022-08-11T02:08:54.169Z,4185.2
2022-08-11T02:14:29.038Z,4187.7
2022-08-11T02:20:04.906Z,4186.3
2022-08-11T02:25:39.778Z,4184
2022-08-11T02:32:35.844Z,4184.5
2022-08-11T02:38:12.405Z,4185
2022-08-11T02:43:52.421Z,4186.7
2022-08-11T02:49:27.367Z,4180.6
2022-08-11T02:55:03.063Z,4184.2
2022-08-11T03:00:37.941Z,4184.7
2022-08-11T03:06:12.903Z,4182.8
2022-08-11T03:11:47.701Z,4181.6
2022-08-11T03:17:44.374Z,4179
2022-08-11T03:23:21.590Z,4182.6
2022-08-11T03:28:56.284Z,4181
2022-08-11T03:34:32.547Z,4180.8
2022-08-11T03:40:09.014Z,4183.3
2022-08-11T03:45:44.136Z,4180.6
2022-08-11T03:51:18.800Z,4179.6
2022-08-11T03:56:53.585Z,4179.1
2022-08-11T04:02:29.515Z,4180.8
2022-08-11T04:08:05.333Z,4179.6
2022-08-11T04:13:40.237Z,4176.3
2022-08-11T04:19:36.845Z,4176.1
2022-08-11T04:25:10.368Z,4178.8
2022-08-11T04:30:45.339Z,4178
2022-08-11T04:36:21.643Z,4179.1
2022-08-11T04:41:56.532Z,4177.6
2022-08-11T04:48:08.572Z,4176.3
2022-08-11T04:53:43.578Z,4176.9
2022-08-11T04:59:18.257Z,4177.3
2022-08-11T05:04:52.998Z,4176.3
2022-08-11T05:10:27.802Z,4178
2022-08-11T05:16:02.792Z,4175.6
2022-08-11T05:21:57.684Z,4176.6
2022-08-11T05:27:32.656Z,4178
2022-08-11T05:33:08.398Z,4177.8
2022-08-11T05:38:43.399Z,4177.3
2022-08-11T05:44:23.492Z,4180.8
2022-08-11T05:50:02.082Z,4182.3
2022-08-11T05:56:04.622Z,4185.5
2022-08-11T06:01:40.413Z,4190.7
2022-08-11T06:07:16.373Z,4190.3
2022-08-11T06:12:53.177Z,4185.7
2022-08-11T06:18:29.221Z,4184.1
2022-08-11T06:24:04.106Z,4186
2022-08-11T06:29:56.784Z,4188
2022-08-11T06:35:31.708Z,4188.3
2022-08-11T06:41:06.593Z,4190.5
2022-08-11T06:46:41.326Z,4188.8
2022-08-11T06:52:37.623Z,4191.4
2022-08-11T06:58:14.138Z,4194.7
2022-08-11T07:03:49.123Z,4199.9
2022-08-11T07:09:25.994Z,4208.9
2022-08-11T07:15:02.379Z,4211.8
2022-08-11T07:20:37.208Z,4214.3
2022-08-11T07:26:12.000Z,4221.3
2022-08-11T07:31:48.085Z,4217.8
2022-08-11T07:37:22.922Z,4227.7
2022-08-11T07:42:57.913Z,4220.7
2022-08-11T07:48:33.867Z,4225.5
2022-08-11T07:54:19.828Z,4219.3
2022-08-11T08:00:12.024Z,4222.2
2022-08-11T08:05:48.496Z,4223.5
2022-08-11T08:11:28.525Z,4216.1
2022-08-11T08:17:25.171Z,4208.3
2022-08-11T08:22:57.847Z,4206.4
2022-08-11T08:28:33.776Z,4208.1
2022-08-11T08:34:08.669Z,4204.4
2022-08-11T08:39:44.531Z,4212.8
2022-08-11T08:45:20.581Z,4214
2022-08-11T08:50:57.003Z,4217.1
2022-08-11T08:56:32.838Z,4222.7
2022-08-11T09:02:07.632Z,4212.6
2022-08-11T09:07:44.725Z,4233.6
2022-08-11T09:13:20.591Z,4216.1
2022-08-11T09:18:58.951Z,4228.2
2022-08-11T09:24:34.102Z,4223.8
2022-08-11T09:30:11.292Z,4223.7
2022-08-11T09:35:46.293Z,4223.7
2022-08-11T09:42:04.168Z,4219.7
2022-08-11T09:47:41.497Z,4223
2022-08-11T09:54:05.016Z,4218.2
2022-08-11T09:59:40.191Z,4225.7
2022-08-11T10:05:14.988Z,4225
2022-08-11T10:10:49.697Z,4220
2022-08-11T10:16:24.570Z,4231.7
2022-08-11T10:21:59.569Z,4228.5
2022-08-11T10:29:15.522Z,4218.8
2022-08-11T10:34:58.843Z,4219.2
2022-08-11T10:40:33.477Z,4219.2
2022-08-11T10:46:08.244Z,4217.5
2022-08-11T10:51:59.462Z,4229
2022-08-11T10:57:34.841Z,4222
2022-08-11T11:03:24.899Z,4219.5
2022-08-11T11:09:06.320Z,4228.2
2022-08-11T11:15:00.247Z,4229
2022-08-11T11:20:49.170Z,4227.5
2022-08-11T11:26:28.864Z,4224.7
2022-08-11T11:32:03.709Z,4223.7
2022-08-11T11:37:38.636Z,4228.4
2022-08-11T11:43:14.509Z,4228.5
2022-08-11T11:48:49.600Z,4229.5
2022-08-11T11:54:24.485Z,4223.5
2022-08-11T11:59:59.647Z,4220
2022-08-11T12:05:34.497Z,4225.2
2022-08-11T12:11:10.108Z,4223.7
2022-08-11T12:17:09.613Z,4229
2022-08-11T12:22:43.624Z,4229
2022-08-11T12:28:18.481Z,4229
2022-08-11T12:33:55.363Z,4222.5
2022-08-11T12:41:19.937Z,4215.8
2022-08-11T12:46:56.350Z,4224.4
2022-08-11T12:52:31.203Z,4217.8
2022-08-11T12:58:08.855Z,4230.2
2022-08-11T13:03:52.654Z,4223.3
2022-08-11T13:09:32.038Z,4227.4
2022-08-11T13:15:07.061Z,4232.9
2022-08-11T13:20:42.031Z,4228.7
2022-08-11T13:26:51.187Z,4227.9
2022-08-11T13:32:26.547Z,4221.5
2022-08-11T13:38:21.960Z,4220.5
2022-08-11T13:44:03.617Z,4229
2022-08-11T13:49:41.675Z,4224.5
2022-08-11T13:55:53.727Z,4218.7
2022-08-11T14:02:32.552Z,4219.5
2022-08-11T14:08:07.958Z,4214.8
2022-08-11T14:14:07.178Z,4219
2022-08-11T14:19:42.142Z,4218
2022-08-11T14:25:17.241Z,4227.9
2022-08-11T14:30:52.702Z,4219.3
2022-08-11T14:36:29.309Z,4227.7
2022-08-11T14:42:14.211Z,4226.4
2022-08-11T14:47:49.459Z,4230
2022-08-11T14:53:24.427Z,4222.3
2022-08-11T14:58:59.446Z,4221.7
2022-08-11T15:04:38.763Z,4221.3
2022-08-11T15:10:18.045Z,4225.2
2022-08-11T15:15:54.217Z,4224.4
2022-08-11T15:21:30.035Z,4224.4
2022-08-11T15:27:05.101Z,4223.8
2022-08-11T15:32:40.065Z,4219.2
2022-08-11T15:38:15.124Z,4219.7
2022-08-11T15:43:49.997Z,4219.2
2022-08-11T15:50:14.973Z,4220.7
2022-08-11T15:55:50.278Z,4218.8
2022-08-11T16:01:26.255Z,4232.1
2022-08-11T16:07:03.765Z,4222
2022-08-11T16:12:40.125Z,4214.8
2022-08-11T16:18:36.805Z,4215
2022-08-11T16:27:15.225Z,4220.2
2022-08-11T16:32:51.070Z,4220.2
2022-08-11T16:38:25.662Z,4218.8
2022-08-11T16:44:00.632Z,4219
2022-08-11T16:49:36.219Z,4215
2022-08-11T16:55:53.725Z,4221
2022-08-11T17:01:29.144Z,4231.9
2022-08-11T17:07:44.318Z,4220.5
2022-08-11T17:13:20.487Z,4219.7
2022-08-11T17:19:17.125Z,4219
2022-08-11T17:24:50.117Z,4219
2022-08-11T17:30:25.014Z,4213
2022-08-11T17:36:00.831Z,4213
2022-08-11T17:41:35.614Z,4211
2022-08-11T17:47:11.276Z,4212.5
2022-08-11T17:52:46.111Z,4216.1
2022-08-11T17:58:20.769Z,4213.6
2022-08-11T18:03:59.936Z,4214.6
2022-08-11T18:09:34.791Z,4212.6
2022-08-11T18:15:12.537Z,4212.1
2022-08-11T18:20:47.386Z,4209.6
2022-08-11T18:26:23.142Z,4208.9
2022-08-11T18:31:57.885Z,4205.8
2022-08-11T18:37:33.746Z,4206.3
2022-08-11T18:43:08.601Z,4207.9
2022-08-11T18:54:20.528Z,4207.6
2022-08-11T18:59:56.247Z,4206.4
2022-08-11T19:06:41.965Z,4205.6
2022-08-11T19:12:17.055Z,4204.8
2022-08-11T19:18:13.380Z,4202.6
2022-08-11T19:23:46.553Z,4203.6
2022-08-11T19:30:15.417Z,4206.1
2022-08-11T19:36:12.417Z,4203.1
2022-08-11T19:41:58.784Z,4202.7
2022-08-11T19:47:33.582Z,4202.4
2022-08-11T19:53:18.766Z,4204.1
2022-08-11T19:58:53.533Z,4201.7
2022-08-11T20:04:28.533Z,4202.2
2022-08-11T20:10:07.621Z,4202.6
2022-08-11T20:15:42.414Z,4200.2
2022-08-11T20:21:34.542Z,4201.7
2022-08-11T20:27:26.468Z,4201.1
2022-08-11T20:33:02.272Z,4200.9
2022-08-11T20:44:34.117Z,4200.1
2022-08-11T20:50:22.097Z,4193.7
2022-08-11T20:55:59.066Z,4198.9
2022-08-11T21:01:45.845Z,4199.9
2022-08-11T21:07:32.632Z,4197.2
2022-08-11T21:13:32.295Z,4198.9
2022-08-11T21:19:10.243Z,4193.5
2022-08-11T21:24:50.060Z,4193.5
2022-08-11T21:30:25.427Z,4192.5
2022-08-11T21:36:00.753Z,4189.7
2022-08-11T21:41:36.193Z,4196.5
2022-08-11T21:47:11.800Z,4194.2
2022-08-11T21:52:47.183Z,4194.4
2022-08-11T21:58:22.809Z,4197.4
2022-08-11T22:03:57.963Z,4193
2022-08-11T22:09:33.286Z,4194.4
2022-08-11T22:15:08.653Z,4189.7
2022-08-11T22:20:43.951Z,4186.2
2022-08-11T22:26:20.270Z,4187.8
2022-08-11T22:31:58.346Z,4193
2022-08-11T22:37:33.628Z,4191.5
2022-08-11T22:43:08.919Z,4191.9
2022-08-11T22:48:44.293Z,4188.7
2022-08-11T22:54:19.743Z,4188
2022-08-11T22:59:55.365Z,4186.8
2022-08-11T23:05:30.622Z,4188
2022-08-11T23:11:05.904Z,4188.7
2022-08-11T23:16:41.668Z,4190.2
2022-08-11T23:22:17.651Z,4185
2022-08-11T23:27:53.674Z,4189.5
2022-08-11T23:33:29.398Z,4183.5
2022-08-11T23:39:04.696Z,4185.5
2022-08-11T23:44:39.718Z,4186.7
2022-08-11T23:50:37.425Z,4188
2022-08-11T23:56:10.925Z,4189
